createdAt,value
2022-09-25T00:00:13.558Z,97723.00
2022-09-25T00:05:27.517Z,97718.00
2022-09-25T00:10:42.810Z,97722.00
2022-09-25T00:16:21.262Z,97712.00
2022-09-25T00:21:42.666Z,97728.00
2022-09-25T00:27:19.433Z,97721.00
2022-09-25T00:32:39.439Z,97725.00
2022-09-25T00:37:54.672Z,97724.00
2022-09-25T00:43:17.195Z,97714.00
2022-09-25T00:48:43.978Z,97710.00
2022-09-25T00:53:57.866Z,97710.00
2022-09-25T00:59:10.875Z,97704.00
2022-09-25T01:04:28.887Z,97701.00
2022-09-25T01:09:38.609Z,97702.00
2022-09-25T01:14:44.701Z,97696.00
2022-09-25T01:20:16.607Z,97696.00
2022-09-25T01:25:36.388Z,97695.00
2022-09-25T01:30:44.204Z,97700.00
2022-09-25T01:36:21.928Z,97693.00
2022-09-25T01:42:06.213Z,97687.00
2022-09-25T01:47:25.666Z,97681.00
2022-09-25T01:52:53.582Z,97684.00
2022-09-25T01:58:15.052Z,97690.00
2022-09-25T02:04:00.271Z,97697.00
2022-09-25T02:09:22.101Z,97701.00
2022-09-25T02:14:30.131Z,97686.00
2022-09-25T02:19:51.203Z,97683.00
2022-09-25T02:25:00.704Z,97681.00
2022-09-25T02:30:04.199Z,97675.00
2022-09-25T02:35:07.409Z,97684.00
2022-09-25T02:40:11.798Z,97679.00
2022-09-25T02:45:37.968Z,97680.00
2022-09-25T02:51:27.810Z,97683.00
2022-09-25T02:57:03.990Z,97681.00
2022-09-25T03:02:14.740Z,97684.00
2022-09-25T03:07:25.310Z,97683.00
2022-09-25T03:12:50.441Z,97686.00
2022-09-25T03:17:53.564Z,97689.00
2022-09-25T03:23:02.760Z,97679.00
2022-09-25T03:28:20.460Z,97676.00
2022-09-25T03:33:26.316Z,97679.00
2022-09-25T03:38:34.265Z,97677.00
2022-09-25T03:43:43.562Z,97674.00
2022-09-25T03:48:58.438Z,97681.00
2022-09-25T03:54:07.863Z,97680.00
2022-09-25T03:59:16.546Z,97676.00
2022-09-25T04:04:38.880Z,97673.00
2022-09-25T04:10:17.373Z,97682.00
2022-09-25T04:15:38.870Z,97685.00
2022-09-25T04:20:54.205Z,97685.00
2022-09-25T04:26:27.514Z,97688.00
2022-09-25T04:31:31.401Z,97690.00
2022-09-25T04:36:58.003Z,97685.00
2022-09-25T04:42:17.613Z,97682.00
2022-09-25T04:47:53.866Z,97682.00
2022-09-25T04:53:06.721Z,97695.00
2022-09-25T04:58:34.619Z,97688.00
2022-09-25T05:04:08.616Z,97688.00
2022-09-25T05:09:12.650Z,97683.00
2022-09-25T05:14:23.326Z,97694.00
2022-09-25T05:19:25.975Z,97688.00
2022-09-25T05:24:33.928Z,97693.00
2022-09-25T05:29:38.981Z,97711.00
2022-09-25T05:34:41.604Z,97711.00
2022-09-25T05:39:44.254Z,97704.00
2022-09-25T05:44:47.119Z,97707.00
2022-09-25T05:49:49.814Z,97697.00
2022-09-25T05:54:53.154Z,97698.00
2022-09-25T05:59:55.769Z,97698.00
2022-09-25T06:05:08.875Z,97701.00
2022-09-25T06:10:14.751Z,97701.00
2022-09-25T06:15:18.269Z,97693.00
2022-09-25T06:20:22.394Z,97702.00
2022-09-25T06:25:26.934Z,97703.00
2022-09-25T06:30:34.496Z,97699.00
2022-09-25T06:35:41.187Z,97697.00
2022-09-25T06:40:45.334Z,97705.00
2022-09-25T06:45:59.151Z,97702.00
2022-09-25T06:51:37.847Z,97695.00
2022-09-25T06:57:06.130Z,97710.00
2022-09-25T07:03:00.813Z,97712.00
2022-09-25T07:08:31.103Z,97700.00
2022-09-25T07:13:36.135Z,97700.00
2022-09-25T07:18:58.986Z,97692.00
2022-09-25T07:24:08.834Z,97690.00
2022-09-25T07:29:21.179Z,97695.00
2022-09-25T07:34:24.746Z,97685.00
2022-09-25T07:39:27.410Z,97688.00
2022-09-25T07:44:37.227Z,97695.00
2022-09-25T07:49:41.398Z,97683.00
2022-09-25T07:54:44.108Z,97682.00
2022-09-25T07:59:47.223Z,97687.00
2022-09-25T08:05:07.722Z,97692.00
2022-09-25T08:10:11.627Z,97687.00
2022-09-25T08:15:14.997Z,97686.00
2022-09-25T08:20:17.758Z,97683.00
2022-09-25T08:25:20.434Z,97679.00
2022-09-25T08:37:10.086Z,97674.00
2022-09-25T08:42:43.084Z,97683.00
2022-09-25T08:48:23.785Z,97676.00
2022-09-25T08:53:41.825Z,97672.00
2022-09-25T08:59:14.706Z,97674.00
2022-09-25T09:04:33.228Z,97681.00
2022-09-25T09:09:48.177Z,97674.00
2022-09-25T09:14:58.930Z,97661.00
2022-09-25T09:20:19.264Z,97657.00
2022-09-25T09:25:41.327Z,97662.00
2022-09-25T09:31:30.234Z,97648.00
2022-09-25T09:37:22.310Z,97654.00
2022-09-25T09:43:08.214Z,97653.00
2022-09-25T09:48:58.324Z,97656.00
2022-09-25T09:54:24.336Z,97657.00
2022-09-25T09:59:43.187Z,97649.00
2022-09-25T10:04:52.175Z,97651.00
2022-09-25T10:10:13.218Z,97636.00
2022-09-25T10:15:33.330Z,97641.00
2022-09-25T10:21:18.909Z,97628.00
2022-09-25T10:26:49.578Z,97633.00
2022-09-25T10:32:15.896Z,97637.00
2022-09-25T10:37:37.302Z,97623.00
2022-09-25T10:42:49.370Z,97621.00
2022-09-25T10:48:21.343Z,97614.00
2022-09-25T10:53:34.395Z,97621.00
2022-09-25T10:59:05.121Z,97616.00
2022-09-25T11:04:41.692Z,97619.00
2022-09-25T11:09:50.468Z,97618.00
2022-09-25T11:15:18.369Z,97612.00
2022-09-25T11:20:29.616Z,97613.00
2022-09-25T11:25:38.436Z,97616.00
2022-09-25T11:30:56.872Z,97612.00
2022-09-25T11:36:29.521Z,97602.00
2022-09-25T11:42:08.027Z,97600.00
2022-09-25T11:47:54.611Z,97605.00
2022-09-25T11:53:21.704Z,97605.00
2022-09-25T11:59:07.414Z,97594.00
2022-09-25T12:04:52.168Z,97583.00
2022-09-25T12:10:33.571Z,97575.00
2022-09-25T12:15:42.933Z,97583.00
2022-09-25T12:26:49.287Z,97581.00
2022-09-25T12:32:24.642Z,97568.00
2022-09-25T12:37:58.165Z,97563.00
2022-09-25T12:43:21.224Z,97551.00
2022-09-25T12:48:39.618Z,97554.00
2022-09-25T12:54:07.576Z,97550.00
2022-09-25T12:59:24.815Z,97544.00
2022-09-25T13:05:00.193Z,97546.00
2022-09-25T13:10:49.557Z,97541.00
2022-09-25T13:16:25.307Z,97552.00
2022-09-25T13:21:59.154Z,97546.00
2022-09-25T13:27:16.498Z,97550.00
2022-09-25T13:32:45.202Z,97539.00
2022-09-25T13:38:47.076Z,97539.00
2022-09-25T13:44:41.313Z,97537.00
2022-09-25T13:50:09.106Z,97545.00
2022-09-25T13:55:19.544Z,97537.00
2022-09-25T14:00:23.454Z,97538.00
2022-09-25T14:05:39.749Z,97539.00
2022-09-25T14:11:21.889Z,97541.00
2022-09-25T14:16:49.223Z,97535.00
2022-09-25T14:22:43.228Z,97540.00
2022-09-25T14:28:02.708Z,97541.00
2022-09-25T14:33:56.692Z,97531.00
2022-09-25T14:39:30.827Z,97540.00
2022-09-25T14:44:51.518Z,97533.00
2022-09-25T14:49:54.668Z,97539.00
2022-09-25T14:55:00.297Z,97534.00
2022-09-25T15:00:08.857Z,97528.00
2022-09-25T15:05:46.964Z,97533.00
2022-09-25T15:11:59.027Z,97527.00
2022-09-25T15:17:35.763Z,97534.00
2022-09-25T15:29:00.038Z,97534.00
2022-09-25T15:34:17.535Z,97527.00
2022-09-25T15:39:28.885Z,97521.00
2022-09-25T15:44:31.918Z,97524.00
2022-09-25T15:49:43.518Z,97523.00
2022-09-25T15:54:49.172Z,97522.00
2022-09-25T16:00:11.285Z,97521.00
2022-09-25T16:05:36.989Z,97521.00
2022-09-25T16:11:07.955Z,97524.00
2022-09-25T16:16:46.263Z,97514.00
2022-09-25T16:22:35.289Z,97501.00
2022-09-25T16:27:52.265Z,97505.00
2022-09-25T16:33:33.492Z,97503.00
2022-09-25T16:39:08.539Z,97498.00
2022-09-25T16:44:19.858Z,97497.00
2022-09-25T16:49:23.552Z,97512.00
2022-09-25T16:54:37.041Z,97512.00
2022-09-25T16:59:39.801Z,97496.00
2022-09-25T17:04:54.606Z,97489.00
2022-09-25T17:09:59.061Z,97489.00
2022-09-25T17:15:02.023Z,97483.00
2022-09-25T17:20:05.004Z,97490.00
2022-09-25T17:25:20.461Z,97484.00
2022-09-25T17:30:25.058Z,97486.00
2022-09-25T17:35:49.906Z,97487.00
2022-09-25T17:41:37.156Z,97480.00
2022-09-25T17:47:20.367Z,97488.00
2022-09-25T17:52:40.719Z,97487.00
2022-09-25T17:57:57.456Z,97484.00
2022-09-25T18:03:31.260Z,97488.00
2022-09-25T18:08:42.057Z,97487.00
2022-09-25T18:14:02.854Z,97494.00
2022-09-25T18:19:32.362Z,97487.00
2022-09-25T18:24:35.028Z,97496.00
2022-09-25T18:29:37.772Z,97489.00
2022-09-25T18:34:40.649Z,97500.00
2022-09-25T18:39:44.681Z,97505.00
2022-09-25T18:44:47.551Z,97501.00
2022-09-25T18:49:50.455Z,97512.00
2022-09-25T18:54:53.264Z,97513.00
2022-09-25T18:59:55.994Z,97498.00
2022-09-25T19:05:23.830Z,97495.00
2022-09-25T19:11:01.377Z,97489.00
2022-09-25T19:16:18.166Z,97492.00
2022-09-25T19:21:27.427Z,97498.00
2022-09-25T19:26:45.701Z,97494.00
2022-09-25T19:32:04.351Z,97495.00
2022-09-25T19:37:23.548Z,97513.00
2022-09-25T19:42:40.844Z,97515.00
2022-09-25T19:47:50.338Z,97517.00
2022-09-25T19:53:05.556Z,97504.00
2022-09-25T19:58:23.290Z,97511.00
2022-09-25T20:03:42.198Z,97504.00
2022-09-25T20:08:47.815Z,97505.00
2022-09-25T20:13:59.196Z,97496.00
2022-09-25T20:19:13.084Z,97505.00
2022-09-25T20:24:18.201Z,97495.00
2022-09-25T20:29:20.914Z,97490.00
2022-09-25T20:34:23.714Z,97491.00
2022-09-25T20:39:27.640Z,97490.00
2022-09-25T20:44:30.338Z,97490.00
2022-09-25T20:49:32.984Z,97488.00
2022-09-25T20:54:35.808Z,97479.00
2022-09-25T20:59:38.661Z,97488.00
2022-09-25T21:04:53.530Z,97486.00
2022-09-25T21:09:57.095Z,97480.00
2022-09-25T21:14:59.708Z,97479.00
2022-09-25T21:20:02.498Z,97475.00
2022-09-25T21:25:05.601Z,97472.00
2022-09-25T21:30:08.864Z,97479.00
2022-09-25T21:35:11.592Z,97474.00
2022-09-25T21:40:14.299Z,97472.00
2022-09-25T21:45:17.001Z,97469.00
2022-09-25T21:50:19.665Z,97465.00
2022-09-25T21:55:22.327Z,97457.00
2022-09-25T22:00:27.134Z,97463.00
2022-09-25T22:06:00.004Z,97467.00
2022-09-25T22:11:31.202Z,97470.00
2022-09-25T22:16:45.589Z,97455.00
2022-09-25T22:22:07.848Z,97453.00
2022-09-25T22:27:27.764Z,97451.00
2022-09-25T22:32:45.606Z,97449.00
2022-09-25T22:37:57.783Z,97438.00
2022-09-25T22:43:16.361Z,97433.00
2022-09-25T22:48:43.941Z,97434.00
2022-09-25T22:53:59.433Z,97438.00
2022-09-25T22:59:12.907Z,97436.00
2022-09-25T23:04:25.589Z,97438.00
2022-09-25T23:09:28.259Z,97427.00
2022-09-25T23:14:31.764Z,97418.00
2022-09-25T23:19:34.547Z,97418.00
2022-09-25T23:24:37.208Z,97412.00
2022-09-25T23:29:39.813Z,97409.00
2022-09-25T23:34:42.481Z,97406.00
2022-09-25T23:39:45.129Z,97400.00
2022-09-25T23:44:48.374Z,97408.00
2022-09-25T23:49:50.983Z,97387.00
2022-09-25T23:54:53.637Z,97382.00
2022-09-25T23:59:56.641Z,97379.00
